Time;durP1;ratioP1;P1;durP2;ratioP2;P2;SDS_P1;SDS_P2;PMS_P1;PMS_P2;Temp;Humidity;BMP_temperature;BMP_pressure;BME280_temperature;BME280_humidity;BME280_pressure;Samples;Min_cycle;Max_cycle;Signal;HPM_P1;HPM_P2
2022/07/07 00:00:38;;;;;;;1.90;1.10;;;;;;;;;;102321;1335;22597;-23
2022/07/07 00:03:07;;;;;;;2.10;1.60;;;;;;;;;;102275;1335;22721;-24
2022/07/07 00:05:37;;;;;;;2.90;1.10;;;;;;;;;;102441;1335;22603;-24
2022/07/07 00:08:06;;;;;;;1.40;1.00;;;;;;;;;;102412;1329;22586;-24
2022/07/07 00:10:35;;;;;;;1.80;1.30;;;;;;;;;;102218;1335;22647;-23
2022/07/07 00:13:04;;;;;;;1.90;1.10;;;;;;;;;;102404;1335;22577;-28
2022/07/07 00:15:32;;;;;;;2.20;1.40;;;;;;;;;;102286;1335;22611;-25
2022/07/07 00:18:01;;;;;;;1.50;1.20;;;;;;;;;;102286;1335;22594;-28
2022/07/07 00:20:30;;;;;;;11.80;1.70;;;;;;;;;;102241;1335;22714;-27
2022/07/07 00:22:59;;;;;;;14.10;1.90;;;;;;;;;;102314;1335;22610;-28
2022/07/07 00:25:28;;;;;;;2.30;1.60;;;;;;;;;;102355;1335;22621;-28
2022/07/07 00:27:56;;;;;;;3.60;1.40;;;;;;;;;;102283;1335;22752;-28
2022/07/07 00:30:25;;;;;;;2.30;1.90;;;;;;;;;;102277;1329;22692;-28
2022/07/07 00:32:54;;;;;;;2.10;1.50;;;;;;;;;;102358;1335;22616;-28
2022/07/07 00:35:23;;;;;;;4.60;1.80;;;;;;;;;;102367;1334;22597;-28
2022/07/07 00:37:52;;;;;;;1.60;1.30;;;;;;;;;;102318;1335;22597;-25
2022/07/07 00:40:20;;;;;;;2.50;1.50;;;;;;;;;;102363;1335;22748;-25
2022/07/07 00:42:49;;;;;;;1.30;1.10;;;;;;;;;;102259;1335;22616;-23
2022/07/07 00:45:18;;;;;;;2.10;1.60;;;;;;;;;;102412;1335;22619;-28
2022/07/07 00:47:47;;;;;;;9.70;2.30;;;;;;;;;;102433;1335;22586;-24
2022/07/07 00:50:16;;;;;;;4.10;1.50;;;;;;;;;;102360;1335;22610;-23
2022/07/07 00:52:45;;;;;;;1.30;1.10;;;;;;;;;;102290;1335;22602;-27
2022/07/07 00:55:14;;;;;;;1.70;1.30;;;;;;;;;;102259;1335;22617;-27
2022/07/07 00:57:43;;;;;;;2.20;1.30;;;;;;;;;;102261;1335;22682;-28
2022/07/07 01:00:13;;;;;;;1.50;1.10;;;;;;;;;;102331;1334;22594;-26
2022/07/07 01:02:42;;;;;;;2.30;1.40;;;;;;;;;;102284;1335;22582;-22
2022/07/07 01:05:11;;;;;;;2.30;1.20;;;;;;;;;;102307;1334;22625;-23
2022/07/07 01:07:40;;;;;;;1.20;1.00;;;;;;;;;;102358;1335;22676;-28
2022/07/07 01:10:09;;;;;;;3.30;1.60;;;;;;;;;;102239;1334;22594;-23
2022/07/07 01:12:38;;;;;;;2.20;1.80;;;;;;;;;;102270;1335;22610;-29
2022/07/07 01:15:08;;;;;;;2.50;1.20;;;;;;;;;;102285;1335;22581;-25
2022/07/07 01:17:38;;;;;;;1.90;1.60;;;;;;;;;;102357;1333;22565;-24
2022/07/07 01:20:07;;;;;;;1.70;1.10;;;;;;;;;;102348;1335;22614;-25
2022/07/07 01:22:37;;;;;;;3.10;1.70;;;;;;;;;;102317;1334;22617;-24
2022/07/07 01:25:06;;;;;;;2.00;1.60;;;;;;;;;;102443;1335;22719;-21
2022/07/07 01:27:35;;;;;;;2.50;2.00;;;;;;;;;;102307;1335;22668;-28
2022/07/07 01:30:04;;;;;;;1.70;1.30;;;;;;;;;;102276;1334;22666;-24
2022/07/07 01:32:33;;;;;;;2.00;1.80;;;;;;;;;;102316;1335;22616;-24
2022/07/07 01:35:02;;;;;;;2.80;1.60;;;;;;;;;;102318;1329;22604;-27
2022/07/07 01:37:32;;;;;;;4.10;1.40;;;;;;;;;;102302;1334;22717;-28
2022/07/07 01:40:02;;;;;;;1.30;1.20;;;;;;;;;;102255;1335;22699;-23
2022/07/07 01:42:30;;;;;;;8.70;2.30;;;;;;;;;;102365;1335;22597;-27
2022/07/07 01:44:59;;;;;;;3.10;1.90;;;;;;;;;;102330;1335;22618;-23
2022/07/07 01:47:28;;;;;;;1.60;1.30;;;;;;;;;;102311;1335;22593;-24
2022/07/07 01:49:57;;;;;;;1.80;1.30;;;;;;;;;;102328;1329;22892;-24
2022/07/07 01:52:26;;;;;;;3.90;1.50;;;;;;;;;;102357;1335;22603;-22
2022/07/07 01:54:55;;;;;;;2.40;2.00;;;;;;;;;;102245;1335;22596;-23
2022/07/07 01:57:24;;;;;;;2.20;1.50;;;;;;;;;;102270;1335;22711;-24
2022/07/07 01:59:53;;;;;;;1.90;1.30;;;;;;;;;;102310;1335;22624;-23
2022/07/07 02:02:21;;;;;;;1.20;1.00;;;;;;;;;;102394;1335;22613;-24
2022/07/07 02:04:50;;;;;;;10.20;1.00;;;;;;;;;;102291;1335;22804;-23
2022/07/07 02:07:19;;;;;;;3.10;1.50;;;;;;;;;;102320;1335;22846;-28
2022/07/07 02:09:48;;;;;;;1.70;1.20;;;;;;;;;;102367;1335;22581;-27
2022/07/07 02:12:17;;;;;;;1.60;0.80;;;;;;;;;;102257;1335;22822;-23
2022/07/07 02:14:45;;;;;;;2.40;1.90;;;;;;;;;;102294;1335;22598;-28
2022/07/07 02:17:14;;;;;;;1.30;1.20;;;;;;;;;;102386;1335;22618;-25
2022/07/07 02:19:43;;;;;;;2.00;1.30;;;;;;;;;;102396;1335;22651;-24
2022/07/07 02:22:12;;;;;;;3.70;1.20;;;;;;;;;;102388;1335;22672;-29
2022/07/07 02:24:41;;;;;;;2.10;1.60;;;;;;;;;;102370;1335;22590;-29
2022/07/07 02:27:10;;;;;;;1.30;1.20;;;;;;;;;;102372;1335;22715;-27
2022/07/07 02:29:39;;;;;;;1.90;1.50;;;;;;;;;;102360;1329;22674;-28
2022/07/07 02:32:08;;;;;;;2.70;2.00;;;;;;;;;;102327;1335;22626;-27
2022/07/07 02:34:37;;;;;;;5.40;1.70;;;;;;;;;;102239;1335;22592;-27
2022/07/07 02:37:06;;;;;;;3.20;2.10;;;;;;;;;;102263;1335;22602;-28
2022/07/07 02:39:34;;;;;;;11.60;2.00;;;;;;;;;;102406;1335;22656;-25
2022/07/07 02:42:03;;;;;;;4.00;2.90;;;;;;;;;;102327;1335;22603;-24
2022/07/07 02:44:32;;;;;;;3.20;2.30;;;;;;;;;;102323;1335;22604;-24
2022/07/07 02:47:01;;;;;;;2.20;1.80;;;;;;;;;;102341;1335;22725;-28
2022/07/07 02:49:30;;;;;;;6.10;2.80;;;;;;;;;;102381;1335;25978;-28
2022/07/07 02:51:59;;;;;;;3.80;2.70;;;;;;;;;;102287;1335;22615;-27
2022/07/07 02:54:28;;;;;;;3.20;2.90;;;;;;;;;;102283;1328;22763;-23
2022/07/07 02:56:57;;;;;;;4.50;3.00;;;;;;;;;;102389;1335;22611;-27
2022/07/07 02:59:25;;;;;;;4.00;3.40;;;;;;;;;;102398;1335;22673;-28
2022/07/07 03:01:54;;;;;;;4.90;2.60;;;;;;;;;;102309;1335;22706;-23
2022/07/07 03:04:23;;;;;;;3.30;2.80;;;;;;;;;;102400;1335;22611;-24
2022/07/07 03:06:52;;;;;;;3.60;3.00;;;;;;;;;;102346;1335;22583;-22
2022/07/07 03:09:21;;;;;;;3.60;2.20;;;;;;;;;;102282;1335;22697;-27
2022/07/07 03:11:49;;;;;;;3.30;2.50;;;;;;;;;;102305;1335;22762;-30
2022/07/07 03:14:18;;;;;;;4.30;2.70;;;;;;;;;;102218;1336;22686;-27
2022/07/07 03:16:47;;;;;;;4.20;3.00;;;;;;;;;;102316;1335;22871;-31
2022/07/07 03:19:16;;;;;;;6.80;3.90;;;;;;;;;;102339;1335;22597;-28
2022/07/07 03:21:45;;;;;;;4.80;3.60;;;;;;;;;;102250;1335;22586;-24
2022/07/07 03:24:14;;;;;;;5.40;4.60;;;;;;;;;;102270;1336;22605;-24
2022/07/07 03:26:42;;;;;;;5.00;3.20;;;;;;;;;;102328;1335;22587;-30
2022/07/07 03:29:11;;;;;;;6.60;3.70;;;;;;;;;;102387;1335;22611;-24
2022/07/07 03:31:40;;;;;;;3.50;3.30;;;;;;;;;;102356;1335;22589;-24
2022/07/07 03:34:09;;;;;;;7.90;4.70;;;;;;;;;;102265;1329;22581;-28
2022/07/07 03:36:38;;;;;;;5.90;3.70;;;;;;;;;;102368;1335;22584;-25
2022/07/07 03:39:07;;;;;;;3.50;3.10;;;;;;;;;;102308;1335;22593;-25
2022/07/07 03:41:36;;;;;;;3.20;2.90;;;;;;;;;;102317;1335;22663;-28
2022/07/07 03:44:05;;;;;;;5.30;4.10;;;;;;;;;;102371;1335;22629;-29
2022/07/07 03:46:33;;;;;;;4.40;3.30;;;;;;;;;;102346;1335;22692;-28
2022/07/07 03:49:02;;;;;;;4.40;3.60;;;;;;;;;;102348;1335;22578;-24
2022/07/07 03:51:31;;;;;;;5.40;4.80;;;;;;;;;;102318;1335;22600;-28
2022/07/07 03:54:00;;;;;;;6.30;3.70;;;;;;;;;;102419;1336;25932;-24
2022/07/07 03:56:29;;;;;;;4.80;2.90;;;;;;;;;;102382;1335;22601;-24
2022/07/07 03:58:57;;;;;;;2.50;2.20;;;;;;;;;;102386;1335;22590;-30
2022/07/07 04:01:26;;;;;;;7.60;3.10;;;;;;;;;;102335;1335;22815;-28
2022/07/07 04:03:55;;;;;;;3.10;2.80;;;;;;;;;;102420;1335;22642;-26
2022/07/07 04:06:24;;;;;;;2.10;2.00;;;;;;;;;;102359;1335;22728;-24
2022/07/07 04:08:53;;;;;;;2.60;2.40;;;;;;;;;;102396;1335;22602;-26
2022/07/07 04:11:22;;;;;;;6.80;3.00;;;;;;;;;;102324;1329;22591;-30
2022/07/07 04:13:50;;;;;;;1.90;1.80;;;;;;;;;;102341;1335;22600;-29
2022/07/07 04:16:20;;;;;;;2.50;1.50;;;;;;;;;;102331;1335;22713;-29
2022/07/07 04:18:49;;;;;;;3.00;2.30;;;;;;;;;;102289;1335;22719;-28
2022/07/07 04:21:17;;;;;;;1.90;1.60;;;;;;;;;;102390;1335;22596;-24
2022/07/07 04:23:46;;;;;;;7.20;2.20;;;;;;;;;;102437;1335;22604;-24
2022/07/07 04:26:15;;;;;;;3.30;1.90;;;;;;;;;;102320;1335;22602;-28
2022/07/07 04:28:44;;;;;;;3.80;2.40;;;;;;;;;;102330;1335;22589;-26
2022/07/07 04:31:13;;;;;;;4.10;1.50;;;;;;;;;;102338;1335;22597;-27
2022/07/07 04:33:41;;;;;;;6.90;1.80;;;;;;;;;;102409;1335;22600;-24
2022/07/07 04:36:13;;;;;;;5.00;2.10;;;;;;;;;;102287;1335;22696;-29
2022/07/07 04:38:42;;;;;;;2.20;1.50;;;;;;;;;;102325;1335;22606;-29
2022/07/07 04:41:11;;;;;;;4.00;2.00;;;;;;;;;;102305;1329;22710;-29
2022/07/07 04:43:39;;;;;;;3.00;2.30;;;;;;;;;;102374;1335;22606;-25
2022/07/07 04:46:08;;;;;;;2.30;1.90;;;;;;;;;;102419;1329;22730;-25
2022/07/07 04:48:37;;;;;;;3.90;2.30;;;;;;;;;;102413;1335;22721;-28
2022/07/07 04:51:06;;;;;;;7.00;2.70;;;;;;;;;;101562;1335;1003080;-28
2022/07/07 04:53:35;;;;;;;2.00;1.80;;;;;;;;;;102257;1335;22709;-24
2022/07/07 04:56:04;;;;;;;12.10;2.40;;;;;;;;;;102301;1335;22715;-30
2022/07/07 04:58:33;;;;;;;3.90;2.30;;;;;;;;;;102394;1335;22586;-24
2022/07/07 05:01:02;;;;;;;5.30;3.00;;;;;;;;;;102321;1329;22711;-28
2022/07/07 05:03:30;;;;;;;4.80;2.60;;;;;;;;;;102352;1335;22599;-28
2022/07/07 05:05:59;;;;;;;2.10;1.60;;;;;;;;;;102324;1335;22809;-25
2022/07/07 05:08:29;;;;;;;3.20;1.70;;;;;;;;;;102220;1335;22696;-24
2022/07/07 05:10:59;;;;;;;5.10;2.20;;;;;;;;;;102323;1336;22566;-29
2022/07/07 05:13:27;;;;;;;4.70;1.60;;;;;;;;;;102382;1335;22614;-26
2022/07/07 05:15:58;;;;;;;4.60;2.60;;;;;;;;;;102263;1335;22607;-24
2022/07/07 05:18:27;;;;;;;3.60;2.20;;;;;;;;;;102240;1335;26458;-28
2022/07/07 05:20:56;;;;;;;2.60;1.70;;;;;;;;;;102362;1334;22582;-28
2022/07/07 05:23:25;;;;;;;15.20;2.70;;;;;;;;;;102462;1335;22591;-28
2022/07/07 05:25:54;;;;;;;6.60;2.10;;;;;;;;;;102307;1335;22664;-27
2022/07/07 05:28:23;;;;;;;3.20;2.90;;;;;;;;;;102304;1335;22593;-28
2022/07/07 05:30:52;;;;;;;3.80;2.10;;;;;;;;;;102165;1335;22617;-25
2022/07/07 05:33:21;;;;;;;3.00;2.40;;;;;;;;;;102315;1335;22603;-24
2022/07/07 05:35:50;;;;;;;2.40;2.00;;;;;;;;;;102287;1329;22589;-28
2022/07/07 05:38:18;;;;;;;1.70;1.30;;;;;;;;;;102210;1336;25243;-27
2022/07/07 05:40:47;;;;;;;3.60;2.00;;;;;;;;;;102330;1335;22721;-24
2022/07/07 05:43:16;;;;;;;3.70;1.40;;;;;;;;;;102332;1335;22892;-29
2022/07/07 05:45:45;;;;;;;2.40;1.50;;;;;;;;;;102309;1335;22620;-27
2022/07/07 05:48:15;;;;;;;2.50;1.80;;;;;;;;;;102374;1335;23173;-28
2022/07/07 05:50:43;;;;;;;2.90;1.40;;;;;;;;;;102363;1329;22834;-25
2022/07/07 05:53:41;;;;;;;4.50;1.30;;;;;;;;;;102368;1335;24421;-27
2022/07/07 05:56:30;;;;;;;1.90;1.40;;;;;;;;;;102339;1329;25212;-25
2022/07/07 05:59:27;;;;;;;2.70;1.60;;;;;;;;;;102383;1329;25274;-25
2022/07/07 06:02:05;;;;;;;1.40;1.00;;;;;;;;;;102335;1335;22596;-30
2022/07/07 06:04:34;;;;;;;1.00;0.70;;;;;;;;;;102292;1335;22812;-29
2022/07/07 06:07:03;;;;;;;0.80;0.50;;;;;;;;;;102375;1335;22603;-31
2022/07/07 06:09:32;;;;;;;1.40;0.80;;;;;;;;;;102253;1336;22595;-25
2022/07/07 06:12:01;;;;;;;8.50;1.90;;;;;;;;;;102274;1335;22654;-28
2022/07/07 06:14:30;;;;;;;1.10;0.60;;;;;;;;;;102315;1335;22813;-25
2022/07/07 06:16:59;;;;;;;1.40;0.70;;;;;;;;;;102330;1335;61399;-25
2022/07/07 06:19:27;;;;;;;1.90;0.80;;;;;;;;;;102340;1334;22601;-26
2022/07/07 06:21:56;;;;;;;2.40;0.90;;;;;;;;;;102241;1335;22610;-24
2022/07/07 06:24:25;;;;;;;1.30;0.60;;;;;;;;;;102333;1335;22721;-25
2022/07/07 06:26:54;;;;;;;2.20;0.60;;;;;;;;;;102303;1335;23083;-29
2022/07/07 06:29:23;;;;;;;2.40;0.40;;;;;;;;;;102344;1335;22614;-25
2022/07/07 06:31:51;;;;;;;13.10;0.50;;;;;;;;;;102336;1335;22611;-25
2022/07/07 06:34:20;;;;;;;4.00;1.20;;;;;;;;;;102362;1329;22784;-25
2022/07/07 06:36:49;;;;;;;1.60;0.50;;;;;;;;;;102285;1335;22604;-28
2022/07/07 06:39:19;;;;;;;3.50;0.50;;;;;;;;;;102367;1335;22677;-28
2022/07/07 06:41:48;;;;;;;0.70;0.20;;;;;;;;;;102253;1335;22576;-29
2022/07/07 06:44:16;;;;;;;0.70;0.30;;;;;;;;;;102342;1335;22635;-25
2022/07/07 06:46:45;;;;;;;0.70;0.30;;;;;;;;;;102433;1335;22562;-27
2022/07/07 06:49:14;;;;;;;0.30;0.10;;;;;;;;;;102411;1335;22608;-28
2022/07/07 06:51:43;;;;;;;2.50;0.40;;;;;;;;;;102307;1335;22596;-29
2022/07/07 06:54:12;;;;;;;2.50;0.40;;;;;;;;;;102359;1335;22614;-26
2022/07/07 06:56:40;;;;;;;1.00;0.20;;;;;;;;;;102356;1335;22563;-29
2022/07/07 06:59:09;;;;;;;0.50;0.20;;;;;;;;;;102327;1335;22614;-29
2022/07/07 07:01:39;;;;;;;1.80;0.40;;;;;;;;;;102228;1335;22614;-24
2022/07/07 07:04:09;;;;;;;1.30;0.30;;;;;;;;;;102296;1335;22583;-25
2022/07/07 07:06:37;;;;;;;0.40;0.30;;;;;;;;;;102314;1335;22655;-28
2022/07/07 07:09:06;;;;;;;1.20;0.40;;;;;;;;;;102384;1335;22891;-25
2022/07/07 07:11:35;;;;;;;1.60;0.60;;;;;;;;;;102425;1335;22614;-29
2022/07/07 07:14:04;;;;;;;0.70;0.40;;;;;;;;;;102323;1335;22591;-25
2022/07/07 07:16:33;;;;;;;1.50;0.50;;;;;;;;;;102224;1335;22593;-28
2022/07/07 07:19:03;;;;;;;0.80;0.40;;;;;;;;;;102370;1335;24298;-26
2022/07/07 07:21:32;;;;;;;1.00;0.30;;;;;;;;;;102303;1335;22596;-24
2022/07/07 07:24:00;;;;;;;1.10;0.40;;;;;;;;;;102295;1335;22618;-28
2022/07/07 07:26:29;;;;;;;0.50;0.40;;;;;;;;;;102342;1329;22664;-26
2022/07/07 07:28:58;;;;;;;2.40;0.60;;;;;;;;;;102349;1335;22556;-29
2022/07/07 07:31:27;;;;;;;0.70;0.50;;;;;;;;;;102353;1335;22614;-25
2022/07/07 07:33:56;;;;;;;1.10;0.40;;;;;;;;;;102132;1335;22589;-24
2022/07/07 07:36:25;;;;;;;1.20;0.60;;;;;;;;;;102258;1335;22598;-25
2022/07/07 07:38:53;;;;;;;0.90;0.50;;;;;;;;;;102397;1335;22593;-24
2022/07/07 07:41:22;;;;;;;1.70;0.50;;;;;;;;;;102264;1335;22591;-25
2022/07/07 07:43:51;;;;;;;3.70;0.50;;;;;;;;;;102197;1335;22592;-29
2022/07/07 07:46:20;;;;;;;2.30;0.40;;;;;;;;;;102292;1335;22589;-29
2022/07/07 07:48:49;;;;;;;0.40;0.40;;;;;;;;;;102275;1336;22593;-29
2022/07/07 07:51:18;;;;;;;1.90;0.70;;;;;;;;;;102263;1335;22607;-25
2022/07/07 07:53:46;;;;;;;4.30;0.40;;;;;;;;;;102362;1335;22605;-31
2022/07/07 07:56:15;;;;;;;0.80;0.30;;;;;;;;;;102337;1335;22573;-26
2022/07/07 07:58:44;;;;;;;1.60;0.40;;;;;;;;;;102458;1335;22599;-29
2022/07/07 08:01:13;;;;;;;1.90;0.60;;;;;;;;;;102331;1335;22586;-25
2022/07/07 08:03:42;;;;;;;1.50;0.80;;;;;;;;;;102318;1335;22645;-28
2022/07/07 08:06:11;;;;;;;1.40;0.60;;;;;;;;;;102321;1335;22592;-24
2022/07/07 08:08:40;;;;;;;0.50;0.40;;;;;;;;;;102344;1335;25831;-30
2022/07/07 08:11:09;;;;;;;1.60;0.60;;;;;;;;;;102336;1329;22595;-24
2022/07/07 08:13:38;;;;;;;1.70;0.50;;;;;;;;;;102325;1335;22603;-24
2022/07/07 08:16:07;;;;;;;2.20;0.90;;;;;;;;;;102324;1335;22575;-28
2022/07/07 08:18:36;;;;;;;1.20;0.60;;;;;;;;;;102281;1335;22590;-29
2022/07/07 08:21:05;;;;;;;1.60;0.80;;;;;;;;;;102271;1328;22597;-29
2022/07/07 08:23:34;;;;;;;1.70;0.60;;;;;;;;;;102257;1335;22592;-30
2022/07/07 08:26:03;;;;;;;2.10;0.90;;;;;;;;;;102245;1335;22617;-24
2022/07/07 08:28:32;;;;;;;5.80;1.00;;;;;;;;;;102303;1335;22652;-25
2022/07/07 08:31:01;;;;;;;3.80;0.90;;;;;;;;;;102350;1335;22617;-28
2022/07/07 08:33:29;;;;;;;3.30;0.70;;;;;;;;;;102275;1335;22601;-24
2022/07/07 08:35:58;;;;;;;2.30;0.70;;;;;;;;;;102268;1335;22614;-27
2022/07/07 08:38:27;;;;;;;1.40;0.60;;;;;;;;;;102275;1336;22605;-31
2022/07/07 08:40:56;;;;;;;1.90;0.60;;;;;;;;;;102390;1335;22608;-30
2022/07/07 08:43:25;;;;;;;2.10;0.70;;;;;;;;;;102293;1335;22596;-29
2022/07/07 08:45:54;;;;;;;2.00;0.40;;;;;;;;;;102251;1336;22596;-31
2022/07/07 08:48:22;;;;;;;1.90;0.70;;;;;;;;;;102408;1335;22602;-28
2022/07/07 08:50:51;;;;;;;0.50;0.30;;;;;;;;;;102340;1335;22647;-26
2022/07/07 08:53:20;;;;;;;0.40;0.30;;;;;;;;;;102236;1335;25376;-28
2022/07/07 08:55:49;;;;;;;0.80;0.40;;;;;;;;;;102317;1334;22861;-26
2022/07/07 08:58:18;;;;;;;1.10;0.50;;;;;;;;;;102246;1335;22596;-30
2022/07/07 09:00:47;;;;;;;2.60;0.60;;;;;;;;;;102223;1335;22599;-30
2022/07/07 09:03:16;;;;;;;0.30;0.30;;;;;;;;;;102412;1335;22614;-28
2022/07/07 09:05:46;;;;;;;0.60;0.60;;;;;;;;;;102346;1335;22568;-28
2022/07/07 09:08:15;;;;;;;1.40;0.50;;;;;;;;;;102260;1335;22589;-29
2022/07/07 09:10:44;;;;;;;1.70;0.60;;;;;;;;;;102227;1329;22613;-29
2022/07/07 09:13:17;;;;;;;1.30;0.40;;;;;;;;;;102319;1335;22728;-28
2022/07/07 09:15:46;;;;;;;1.40;0.60;;;;;;;;;;102351;1335;22660;-25
2022/07/07 09:18:18;;;;;;;0.50;0.20;;;;;;;;;;102278;1335;22883;-29
2022/07/07 09:20:47;;;;;;;0.70;0.20;;;;;;;;;;102416;1335;25214;-23
2022/07/07 09:23:15;;;;;;;2.80;0.70;;;;;;;;;;102347;1334;22606;-29
2022/07/07 09:25:44;;;;;;;3.00;0.40;;;;;;;;;;102436;1334;22598;-25
2022/07/07 09:28:13;;;;;;;1.00;0.60;;;;;;;;;;102351;1335;22684;-28
2022/07/07 09:30:43;;;;;;;4.30;0.70;;;;;;;;;;102395;1332;22599;-24
2022/07/07 09:33:13;;;;;;;4.10;0.80;;;;;;;;;;102287;1335;22656;-28
2022/07/07 09:38:16;;;;;;;1.10;0.50;;;;;;;;;;102381;1335;22609;-29
2022/07/07 09:40:49;;;;;;;1.30;0.50;;;;;;;;;;102343;1334;22586;-28
2022/07/07 09:43:17;;;;;;;3.40;0.10;;;;;;;;;;102275;1335;22596;-28
2022/07/07 09:45:47;;;;;;;3.60;0.10;;;;;;;;;;102380;1335;22651;-29
2022/07/07 09:48:16;;;;;;;1.50;0.40;;;;;;;;;;102361;1335;22556;-29
2022/07/07 09:50:45;;;;;;;1.30;0.50;;;;;;;;;;102267;1335;22578;-29
2022/07/07 09:53:14;;;;;;;1.90;0.40;;;;;;;;;;102344;1334;22583;-24
2022/07/07 09:55:46;;;;;;;2.10;0.50;;;;;;;;;;102332;1334;22598;-24
2022/07/07 09:58:14;;;;;;;1.00;0.50;;;;;;;;;;102345;1335;22583;-24
2022/07/07 10:00:43;;;;;;;0.30;0.10;;;;;;;;;;102292;1329;22566;-25
2022/07/07 10:03:12;;;;;;;1.60;0.20;;;;;;;;;;102402;1334;22587;-30
2022/07/07 10:05:41;;;;;;;0.90;0.30;;;;;;;;;;102385;1335;22624;-30
2022/07/07 10:08:09;;;;;;;0.60;0.30;;;;;;;;;;102330;1332;22599;-24
2022/07/07 10:10:38;;;;;;;5.30;0.50;;;;;;;;;;102328;1334;22597;-27
2022/07/07 10:13:07;;;;;;;0.50;0.50;;;;;;;;;;102322;1335;22698;-30
2022/07/07 10:15:36;;;;;;;0.90;0.20;;;;;;;;;;102295;1334;22602;-26
2022/07/07 10:18:05;;;;;;;1.70;0.50;;;;;;;;;;102281;1335;22593;-26
2022/07/07 10:20:34;;;;;;;0.20;0.20;;;;;;;;;;102402;1335;22589;-25
2022/07/07 10:23:03;;;;;;;4.70;0.20;;;;;;;;;;102402;1335;22614;-25
2022/07/07 10:25:34;;;;;;;1.50;0.50;;;;;;;;;;102293;1335;22860;-24
2022/07/07 10:28:03;;;;;;;0.40;0.20;;;;;;;;;;102349;1335;22582;-24
2022/07/07 10:30:33;;;;;;;0.20;0.20;;;;;;;;;;102319;1335;22664;-28
2022/07/07 10:33:03;;;;;;;1.90;0.30;;;;;;;;;;102278;1335;22592;-30
2022/07/07 10:35:39;;;;;;;0.80;0.40;;;;;;;;;;102276;1335;24224;-25
2022/07/07 10:38:09;;;;;;;0.70;0.20;;;;;;;;;;102364;1335;22711;-26
2022/07/07 10:40:38;;;;;;;7.20;0.90;;;;;;;;;;102321;1335;22684;-26
2022/07/07 10:43:10;;;;;;;0.30;0.10;;;;;;;;;;102380;1335;22620;-28
2022/07/07 10:45:44;;;;;;;0.50;0.10;;;;;;;;;;102329;1335;22661;-25
2022/07/07 10:48:16;;;;;;;1.70;0.20;;;;;;;;;;102393;1335;22633;-25
2022/07/07 10:50:48;;;;;;;1.20;0.20;;;;;;;;;;102456;1335;22592;-28
2022/07/07 10:53:28;;;;;;;0.40;0.20;;;;;;;;;;102267;1335;22603;-25
2022/07/07 10:55:57;;;;;;;0.60;0.20;;;;;;;;;;102294;1335;22595;-31
2022/07/07 10:58:29;;;;;;;2.00;0.40;;;;;;;;;;102373;1335;22710;-31
2022/07/07 11:01:01;;;;;;;1.20;1.10;;;;;;;;;;102412;1324;22603;-29
2022/07/07 11:03:35;;;;;;;1.50;0.60;;;;;;;;;;102331;1335;22810;-29
2022/07/07 11:06:05;;;;;;;1.00;0.30;;;;;;;;;;102331;1335;22666;-28
2022/07/07 11:08:36;;;;;;;2.90;0.70;;;;;;;;;;102348;1329;22679;-29
2022/07/07 11:11:05;;;;;;;0.80;0.30;;;;;;;;;;102328;1335;22618;-26
2022/07/07 11:13:35;;;;;;;1.50;0.30;;;;;;;;;;102381;1335;22598;-30
2022/07/07 11:16:05;;;;;;;0.10;0.10;;;;;;;;;;102376;1335;23899;-30
2022/07/07 11:18:34;;;;;;;1.60;0.50;;;;;;;;;;102327;1335;22711;-26
2022/07/07 11:21:12;;;;;;;0.50;0.30;;;;;;;;;;102319;1335;22591;-28
2022/07/07 11:23:42;;;;;;;1.00;0.30;;;;;;;;;;102317;1335;22589;-25
2022/07/07 11:26:11;;;;;;;0.80;0.40;;;;;;;;;;102306;1335;22576;-27
2022/07/07 11:28:40;;;;;;;7.70;0.50;;;;;;;;;;102263;1335;22615;-29
2022/07/07 11:31:09;;;;;;;0.50;0.20;;;;;;;;;;102343;1328;22609;-29
2022/07/07 11:33:39;;;;;;;0.80;0.40;;;;;;;;;;102372;1335;22595;-28
2022/07/07 11:36:08;;;;;;;2.20;0.30;;;;;;;;;;102318;1335;22620;-28
2022/07/07 11:38:37;;;;;;;1.20;0.40;;;;;;;;;;102335;1335;22601;-28
2022/07/07 11:41:06;;;;;;;0.80;0.20;;;;;;;;;;102310;1335;22701;-27
2022/07/07 11:43:35;;;;;;;3.40;0.40;;;;;;;;;;102399;1335;22617;-24
2022/07/07 11:46:04;;;;;;;0.40;0.30;;;;;;;;;;102340;1335;22611;-25
2022/07/07 11:48:34;;;;;;;0.70;0.30;;;;;;;;;;102380;1335;22719;-25
2022/07/07 11:51:03;;;;;;;1.50;0.40;;;;;;;;;;102281;1335;22731;-25
2022/07/07 11:53:32;;;;;;;0.90;0.20;;;;;;;;;;102365;1329;22795;-29
2022/07/07 11:56:01;;;;;;;0.80;0.20;;;;;;;;;;102411;1329;22699;-24
2022/07/07 11:58:30;;;;;;;0.50;0.30;;;;;;;;;;102382;1335;22593;-23
2022/07/07 12:00:59;;;;;;;0.90;0.60;;;;;;;;;;102391;1329;22578;-28
2022/07/07 12:03:29;;;;;;;1.70;0.40;;;;;;;;;;102347;1335;22600;-27
2022/07/07 12:05:57;;;;;;;1.50;0.40;;;;;;;;;;102334;1335;22580;-26
2022/07/07 12:08:30;;;;;;;0.80;0.30;;;;;;;;;;102348;1335;22619;-26
2022/07/07 12:10:59;;;;;;;0.50;0.40;;;;;;;;;;102272;1335;22617;-26
2022/07/07 12:13:28;;;;;;;1.10;0.50;;;;;;;;;;102291;1335;22601;-28
2022/07/07 12:15:57;;;;;;;4.10;0.50;;;;;;;;;;102347;1335;22615;-28
2022/07/07 12:18:29;;;;;;;0.30;0.20;;;;;;;;;;102388;1335;22623;-28
2022/07/07 12:20:59;;;;;;;1.90;0.20;;;;;;;;;;102269;1335;22688;-28
2022/07/07 12:23:28;;;;;;;0.30;0.20;;;;;;;;;;102311;1335;22590;-28
2022/07/07 12:26:00;;;;;;;0.60;0.30;;;;;;;;;;102346;1335;22594;-26
2022/07/07 12:28:33;;;;;;;0.80;0.30;;;;;;;;;;102377;1335;22607;-31
2022/07/07 12:31:01;;;;;;;2.20;0.40;;;;;;;;;;102343;1335;22688;-28
2022/07/07 12:33:31;;;;;;;0.70;0.50;;;;;;;;;;102346;1334;23045;-24
2022/07/07 12:36:03;;;;;;;0.80;0.60;;;;;;;;;;102328;1335;22583;-26
2022/07/07 12:38:36;;;;;;;0.40;0.10;;;;;;;;;;102377;1335;22724;-25
2022/07/07 12:41:05;;;;;;;6.30;0.20;;;;;;;;;;102361;1332;22608;-26
2022/07/07 12:43:35;;;;;;;1.90;0.30;;;;;;;;;;102314;1335;22602;-26
2022/07/07 12:46:07;;;;;;;2.30;0.80;;;;;;;;;;102400;1335;22660;-24
2022/07/07 12:48:39;;;;;;;0.10;0.10;;;;;;;;;;102329;1335;22610;-24
2022/07/07 12:51:08;;;;;;;1.20;0.20;;;;;;;;;;102423;1335;22599;-25
2022/07/07 12:53:37;;;;;;;0.50;0.20;;;;;;;;;;102361;1335;22598;-29
2022/07/07 12:56:06;;;;;;;0.40;0.30;;;;;;;;;;102324;1334;22591;-25
2022/07/07 12:58:39;;;;;;;1.40;0.40;;;;;;;;;;102357;1335;22727;-25
2022/07/07 13:01:07;;;;;;;0.90;0.40;;;;;;;;;;102387;1335;22726;-24
2022/07/07 13:03:36;;;;;;;1.00;0.30;;;;;;;;;;102305;1335;22603;-24
2022/07/07 13:06:05;;;;;;;2.30;0.40;;;;;;;;;;102358;1335;22599;-30
2022/07/07 13:08:34;;;;;;;0.40;0.40;;;;;;;;;;102357;1335;22591;-29
2022/07/07 13:11:03;;;;;;;1.40;0.30;;;;;;;;;;102392;1335;22676;-25
2022/07/07 13:13:32;;;;;;;0.90;0.50;;;;;;;;;;102361;1335;25229;-30
2022/07/07 13:16:01;;;;;;;0.70;0.40;;;;;;;;;;102346;1335;22602;-28
2022/07/07 13:18:30;;;;;;;0.60;0.50;;;;;;;;;;102301;1334;22597;-29
2022/07/07 13:21:00;;;;;;;0.80;0.50;;;;;;;;;;102242;1334;22714;-25
2022/07/07 13:23:29;;;;;;;0.90;0.40;;;;;;;;;;102382;1335;22597;-29
2022/07/07 13:25:59;;;;;;;0.40;0.30;;;;;;;;;;102238;1332;22671;-24
2022/07/07 13:28:28;;;;;;;0.90;0.20;;;;;;;;;;102352;1334;22750;-29
2022/07/07 13:30:57;;;;;;;0.90;0.30;;;;;;;;;;102359;1335;22594;-27
2022/07/07 13:33:25;;;;;;;8.60;0.30;;;;;;;;;;102345;1335;22679;-29
2022/07/07 13:35:54;;;;;;;1.10;0.40;;;;;;;;;;102235;1335;22679;-24
2022/07/07 13:38:23;;;;;;;0.10;0.10;;;;;;;;;;102417;1335;22600;-29
2022/07/07 13:40:52;;;;;;;0.80;0.30;;;;;;;;;;102340;1327;22677;-29
2022/07/07 13:43:21;;;;;;;0.30;0.20;;;;;;;;;;102368;1336;22616;-29
2022/07/07 13:45:51;;;;;;;0.50;0.20;;;;;;;;;;102313;1335;22618;-24
2022/07/07 13:48:20;;;;;;;0.50;0.20;;;;;;;;;;102385;1335;22617;-23
2022/07/07 13:50:49;;;;;;;1.30;0.30;;;;;;;;;;102357;1334;22715;-31
2022/07/07 13:53:18;;;;;;;0.90;0.30;;;;;;;;;;102315;1335;22713;-31
2022/07/07 13:55:47;;;;;;;0.40;0.30;;;;;;;;;;102268;1327;22795;-24
2022/07/07 13:58:16;;;;;;;0.40;0.30;;;;;;;;;;102256;1335;22748;-25
2022/07/07 14:00:45;;;;;;;2.60;0.40;;;;;;;;;;102370;1335;22703;-28
2022/07/07 14:03:15;;;;;;;4.20;0.50;;;;;;;;;;102336;1335;23024;-28
2022/07/07 14:05:44;;;;;;;1.00;0.30;;;;;;;;;;102256;1335;22740;-28
2022/07/07 14:08:12;;;;;;;6.50;0.40;;;;;;;;;;102370;1335;22593;-31
2022/07/07 14:10:41;;;;;;;1.20;0.40;;;;;;;;;;102310;1329;22604;-27
2022/07/07 14:13:10;;;;;;;1.80;0.30;;;;;;;;;;102296;1335;22595;-29
2022/07/07 14:15:42;;;;;;;0.40;0.20;;;;;;;;;;102307;1335;22608;-29
2022/07/07 14:18:11;;;;;;;2.90;0.30;;;;;;;;;;102337;1335;78049;-25
2022/07/07 14:20:40;;;;;;;0.80;0.30;;;;;;;;;;102346;1335;22610;-27
2022/07/07 14:23:09;;;;;;;7.30;0.40;;;;;;;;;;102237;1335;22697;-29
2022/07/07 14:25:37;;;;;;;0.50;0.10;;;;;;;;;;102351;1335;22858;-29
2022/07/07 14:28:06;;;;;;;1.10;0.40;;;;;;;;;;102402;1335;22688;-25
2022/07/07 14:30:35;;;;;;;1.20;0.40;;;;;;;;;;102327;1335;22662;-28
2022/07/07 14:33:04;;;;;;;1.70;0.40;;;;;;;;;;102317;1335;22614;-29
2022/07/07 14:35:33;;;;;;;0.40;0.40;;;;;;;;;;102255;1335;22618;-28
2022/07/07 14:38:02;;;;;;;1.90;0.60;;;;;;;;;;102357;1335;22722;-24
2022/07/07 14:40:31;;;;;;;0.80;0.30;;;;;;;;;;102346;1335;22822;-24
2022/07/07 14:43:00;;;;;;;2.30;0.20;;;;;;;;;;102248;1335;22618;-29